createdAt,value
2023-01-05T00:01:41.724Z,101899.56
2023-01-05T00:04:11.723Z,101904.44
2023-01-05T00:06:39.769Z,101898.44
2023-01-05T00:09:10.361Z,101893.03
2023-01-05T00:11:56.421Z,101892.00
2023-01-05T00:14:45.386Z,101891.47
2023-01-05T00:17:34.332Z,101891.50
2023-01-05T00:20:20.552Z,101889.25
2023-01-05T00:22:53.566Z,101891.88
2023-01-05T00:25:23.703Z,101890.06
2023-01-05T00:27:53.642Z,101886.25
2023-01-05T00:30:23.716Z,101879.72
2023-01-05T00:32:51.380Z,101868.34
2023-01-05T00:35:19.288Z,101873.50
2023-01-05T00:37:46.708Z,101873.19
2023-01-05T00:40:17.331Z,101872.41
2023-01-05T00:42:45.289Z,101872.38
2023-01-05T00:45:15.266Z,101871.34
2023-01-05T00:47:43.150Z,101860.72
2023-01-05T00:50:14.515Z,101866.19
2023-01-05T00:52:42.422Z,101856.13
2023-01-05T00:55:10.656Z,101856.59
2023-01-05T00:57:38.188Z,101852.34
2023-01-05T01:00:07.980Z,101845.03
2023-01-05T01:02:35.708Z,101848.81
2023-01-05T01:05:03.029Z,101845.47
2023-01-05T01:07:31.292Z,101846.84
2023-01-05T01:09:58.655Z,101847.34
2023-01-05T01:12:26.086Z,101845.22
2023-01-05T01:14:53.568Z,101844.13
2023-01-05T01:17:20.948Z,101845.06
2023-01-05T01:19:48.363Z,101840.78
2023-01-05T01:22:15.851Z,101849.88
2023-01-05T01:24:43.243Z,101840.75
2023-01-05T01:27:12.742Z,101848.03
2023-01-05T01:29:40.331Z,101844.84
2023-01-05T01:32:08.251Z,101851.28
2023-01-05T01:34:35.874Z,101847.28
2023-01-05T01:37:03.311Z,101843.75
2023-01-05T01:39:35.951Z,101837.75
2023-01-05T01:42:14.139Z,101842.06
2023-01-05T01:45:05.782Z,101848.00
2023-01-05T01:47:43.980Z,101837.28
2023-01-05T01:50:19.073Z,101838.94
2023-01-05T01:52:50.919Z,101836.63
2023-01-05T01:55:19.570Z,101823.28
2023-01-05T01:57:48.770Z,101824.53
2023-01-05T02:00:18.786Z,101830.47
2023-01-05T02:02:48.814Z,101825.66
2023-01-05T02:05:21.842Z,101821.88
2023-01-05T02:07:49.542Z,101820.66
2023-01-05T02:10:22.553Z,101823.34
2023-01-05T02:13:09.172Z,101822.88
2023-01-05T02:15:59.563Z,101811.22
2023-01-05T02:18:39.551Z,101798.13
2023-01-05T02:21:16.603Z,101791.16
2023-01-05T02:24:17.796Z,101781.16
2023-01-05T02:27:00.303Z,101786.59
2023-01-05T02:30:08.486Z,101783.38
2023-01-05T02:32:59.278Z,101780.09
2023-01-05T02:36:03.438Z,101780.94
2023-01-05T02:39:15.258Z,101769.81
2023-01-05T02:42:08.252Z,101771.13
2023-01-05T02:44:36.848Z,101759.22
2023-01-05T02:47:28.162Z,101756.00
2023-01-05T02:50:05.067Z,101754.94
2023-01-05T02:52:42.882Z,101746.28
2023-01-05T02:55:16.264Z,101744.09
2023-01-05T02:57:56.039Z,101748.41
2023-01-05T03:00:32.715Z,101746.84
2023-01-05T03:03:11.749Z,101740.03
2023-01-05T03:05:44.397Z,101733.81
2023-01-05T03:08:26.362Z,101737.31
2023-01-05T03:11:21.242Z,101727.63
2023-01-05T03:13:59.042Z,101717.81
2023-01-05T03:16:33.929Z,101715.69
2023-01-05T03:19:23.517Z,101712.16
2023-01-05T03:22:11.564Z,101702.69
2023-01-05T03:25:03.519Z,101709.50
2023-01-05T03:27:54.395Z,101704.88
2023-01-05T03:30:49.338Z,101698.63
2023-01-05T03:33:48.609Z,101687.56
2023-01-05T03:36:20.274Z,101687.78
2023-01-05T03:38:49.234Z,101684.00
2023-01-05T03:41:19.912Z,101680.97
2023-01-05T03:43:48.561Z,101682.63
2023-01-05T03:46:22.184Z,101681.00
2023-01-05T03:48:50.795Z,101673.47
2023-01-05T03:51:20.588Z,101676.47
2023-01-05T03:53:48.107Z,101650.00
2023-01-05T03:56:15.598Z,101660.00
2023-01-05T03:58:43.349Z,101648.41
2023-01-05T04:01:11.195Z,101655.38
2023-01-05T04:03:40.788Z,101657.50
2023-01-05T04:06:09.049Z,101648.28
2023-01-05T04:08:38.299Z,101639.31
2023-01-05T04:11:17.989Z,101654.16
2023-01-05T04:13:53.579Z,101649.44
2023-01-05T04:16:22.053Z,101657.00
2023-01-05T04:18:51.566Z,101658.09
2023-01-05T04:21:21.605Z,101663.00
2023-01-05T04:23:50.741Z,101659.72
2023-01-05T04:26:18.263Z,101659.50
2023-01-05T04:28:49.302Z,101665.69
2023-01-05T04:31:19.107Z,101666.25
2023-01-05T04:33:46.631Z,101648.13
2023-01-05T04:36:18.421Z,101666.78
2023-01-05T04:38:45.850Z,101651.94
2023-01-05T04:41:14.073Z,101655.75
2023-01-05T04:43:46.540Z,101656.63
2023-01-05T04:46:15.194Z,101659.34
2023-01-05T04:48:45.865Z,101667.09
2023-01-05T04:51:14.755Z,101676.91
2023-01-05T04:53:42.620Z,101663.53
2023-01-05T04:56:33.181Z,101667.63
2023-01-05T04:59:01.981Z,101663.31
2023-01-05T05:01:30.214Z,101666.56
2023-01-05T05:04:00.100Z,101673.06
2023-01-05T05:06:27.697Z,101652.72
2023-01-05T05:08:56.651Z,101648.94
2023-01-05T05:11:26.271Z,101660.81
2023-01-05T05:13:53.732Z,101649.50
2023-01-05T05:16:21.278Z,101650.03
2023-01-05T05:18:50.112Z,101657.88
2023-01-05T05:21:22.395Z,101650.00
2023-01-05T05:23:49.839Z,101653.56
2023-01-05T05:26:17.492Z,101664.63
2023-01-05T05:28:46.946Z,101648.34
2023-01-05T05:31:14.469Z,101659.72
2023-01-05T05:33:41.905Z,101662.38
2023-01-05T05:36:09.832Z,101654.56
2023-01-05T05:38:37.290Z,101662.13
2023-01-05T05:41:04.879Z,101661.00
2023-01-05T05:43:32.312Z,101672.38
2023-01-05T05:45:59.707Z,101646.69
2023-01-05T05:48:27.324Z,101662.16
2023-01-05T05:50:54.807Z,101654.25
2023-01-05T05:53:22.137Z,101650.47
2023-01-05T05:55:50.819Z,101652.88
2023-01-05T05:58:19.065Z,101661.81
2023-01-05T06:00:47.367Z,101649.59
2023-01-05T06:03:14.852Z,101665.81
2023-01-05T06:05:42.412Z,101642.28
2023-01-05T06:08:09.953Z,101657.88
2023-01-05T06:10:37.587Z,101651.50
2023-01-05T06:13:05.483Z,101656.69
2023-01-05T06:15:32.862Z,101659.09
2023-01-05T06:18:00.256Z,101652.59
2023-01-05T06:20:27.743Z,101661.34
2023-01-05T06:22:55.191Z,101640.72
2023-01-05T06:25:22.628Z,101644.13
2023-01-05T06:27:50.102Z,101643.34
2023-01-05T06:30:17.612Z,101651.44
2023-01-05T06:32:45.026Z,101643.13
2023-01-05T06:35:13.167Z,101645.06
2023-01-05T06:37:40.682Z,101640.16
2023-01-05T06:40:09.813Z,101634.34
2023-01-05T06:42:38.141Z,101632.88
2023-01-05T06:45:06.617Z,101633.13
2023-01-05T06:47:33.983Z,101633.69
2023-01-05T06:50:01.391Z,101630.41
2023-01-05T06:52:29.042Z,101632.03
2023-01-05T06:54:56.462Z,101628.56
2023-01-05T06:57:24.900Z,101627.72
2023-01-05T06:59:52.292Z,101640.47
2023-01-05T07:02:19.715Z,101639.25
2023-01-05T07:04:47.177Z,101631.94
2023-01-05T07:07:15.557Z,101630.22
2023-01-05T07:09:44.986Z,101628.56
2023-01-05T07:12:12.363Z,101640.56
2023-01-05T07:14:39.799Z,101627.25
2023-01-05T07:17:08.114Z,101633.44
2023-01-05T07:19:35.673Z,101643.34
2023-01-05T07:22:03.080Z,101638.97
2023-01-05T07:24:30.513Z,101643.00
2023-01-05T07:27:07.634Z,101643.03
2023-01-05T07:29:37.338Z,101632.22
2023-01-05T07:32:05.185Z,101642.22
2023-01-05T07:34:32.732Z,101640.38
2023-01-05T07:37:00.125Z,101646.25
2023-01-05T07:39:27.537Z,101635.50
2023-01-05T07:41:54.888Z,101641.50
2023-01-05T07:44:25.756Z,101636.81
2023-01-05T07:46:53.776Z,101624.00
2023-01-05T07:49:21.161Z,101624.75
2023-01-05T07:51:48.457Z,101632.59
2023-01-05T07:54:15.964Z,101634.25
2023-01-05T07:56:43.412Z,101630.78
2023-01-05T07:59:10.762Z,101632.38
2023-01-05T08:01:38.120Z,101636.38
2023-01-05T08:04:05.608Z,101634.41
2023-01-05T08:06:34.212Z,101642.94
2023-01-05T08:09:21.540Z,101642.19
2023-01-05T08:11:48.875Z,101637.94
2023-01-05T08:14:16.231Z,101645.56
2023-01-05T08:16:43.648Z,101652.94
2023-01-05T08:19:11.830Z,101646.41
2023-01-05T08:21:39.443Z,101643.41
2023-01-05T08:24:07.324Z,101640.63
2023-01-05T08:26:34.722Z,101638.22
2023-01-05T08:29:02.144Z,101629.97
2023-01-05T08:31:34.029Z,101629.03
2023-01-05T08:34:02.492Z,101639.59
2023-01-05T08:36:31.382Z,101633.31
2023-01-05T08:39:01.216Z,101634.25
2023-01-05T08:41:31.892Z,101640.53
2023-01-05T08:44:00.997Z,101647.72
2023-01-05T08:46:35.004Z,101633.31
2023-01-05T08:49:05.223Z,101631.41
2023-01-05T08:51:33.339Z,101624.69
2023-01-05T08:54:01.045Z,101642.97
2023-01-05T08:56:31.811Z,101641.59
2023-01-05T08:59:03.968Z,101638.63
2023-01-05T09:01:31.564Z,101649.78
2023-01-05T09:03:59.036Z,101648.88
2023-01-05T09:06:26.476Z,101638.47
2023-01-05T09:08:54.975Z,101641.88
2023-01-05T09:11:25.451Z,101637.16
2023-01-05T09:13:58.845Z,101659.38
2023-01-05T09:19:17.078Z,101652.88
2023-01-05T09:21:44.697Z,101645.94
2023-01-05T09:24:13.185Z,101641.91
2023-01-05T09:26:41.885Z,101645.13
2023-01-05T09:29:10.473Z,101651.84
2023-01-05T09:31:38.547Z,101643.50
2023-01-05T09:34:06.111Z,101647.78
2023-01-05T09:36:33.489Z,101638.81
2023-01-05T09:39:00.909Z,101647.28
2023-01-05T09:41:38.514Z,101648.06
2023-01-05T09:44:14.569Z,101650.94
2023-01-05T09:46:46.899Z,101642.53
2023-01-05T09:49:15.705Z,101635.75
2023-01-05T09:51:43.864Z,101633.41
2023-01-05T09:54:17.630Z,101636.06
2023-01-05T09:59:42.740Z,101634.63
2023-01-05T10:02:17.353Z,101624.78
2023-01-05T10:04:46.839Z,101619.78
2023-01-05T10:07:22.220Z,101617.13
2023-01-05T10:09:51.171Z,101608.09
2023-01-05T10:12:44.047Z,101606.97
2023-01-05T10:15:18.505Z,101603.78
2023-01-05T10:17:47.502Z,101600.84
2023-01-05T10:20:20.859Z,101608.13
2023-01-05T10:23:27.365Z,101598.03
2023-01-05T10:26:16.126Z,101602.16
2023-01-05T10:28:58.766Z,101597.41
2023-01-05T10:31:29.212Z,101600.53
2023-01-05T10:34:17.397Z,101601.34
2023-01-05T10:37:09.271Z,101596.22
2023-01-05T10:40:12.278Z,101595.19
2023-01-05T10:42:42.418Z,101593.34
2023-01-05T10:45:15.749Z,101577.56
2023-01-05T10:47:45.290Z,101573.56
2023-01-05T10:50:42.392Z,101579.97
2023-01-05T10:53:24.424Z,101574.88
2023-01-05T10:56:00.983Z,101580.44
2023-01-05T10:58:30.775Z,101566.13
2023-01-05T11:01:03.005Z,101557.97
2023-01-05T11:04:23.063Z,101560.41
2023-01-05T11:06:30.486Z,101565.50
2023-01-05T11:09:12.780Z,101561.44
2023-01-05T11:11:42.766Z,101565.81
2023-01-05T11:14:16.521Z,101559.97
2023-01-05T11:16:53.598Z,101557.72
2023-01-05T11:19:34.144Z,101553.69
2023-01-05T11:22:02.479Z,101552.13
2023-01-05T11:24:35.779Z,101549.22
2023-01-05T11:27:25.346Z,101550.75
2023-01-05T11:30:16.070Z,101548.38
2023-01-05T11:32:44.845Z,101545.06
2023-01-05T11:35:31.016Z,101537.53
2023-01-05T11:37:58.473Z,101534.00
2023-01-05T11:40:30.805Z,101529.53
2023-01-05T11:42:59.906Z,101520.06
2023-01-05T11:45:37.882Z,101532.84
2023-01-05T11:48:08.801Z,101521.19
2023-01-05T11:50:49.141Z,101512.72
2023-01-05T11:53:31.864Z,101515.44
2023-01-05T11:56:03.963Z,101509.84
2023-01-05T11:58:43.310Z,101496.38
2023-01-05T12:01:16.708Z,101497.09
2023-01-05T12:03:58.551Z,101495.16
2023-01-05T12:06:47.748Z,101492.69
2023-01-05T12:09:35.209Z,101493.34
2023-01-05T12:12:18.059Z,101493.88
2023-01-05T12:15:06.921Z,101500.16
2023-01-05T12:17:48.988Z,101496.69
2023-01-05T12:20:34.675Z,101488.91
2023-01-05T12:23:32.403Z,101478.44
2023-01-05T12:26:21.543Z,101487.84
2023-01-05T12:35:31.257Z,101484.31
2023-01-05T12:38:23.839Z,101488.00
2023-01-05T12:41:09.633Z,101474.56
2023-01-05T12:43:45.786Z,101483.56
2023-01-05T12:46:31.629Z,101480.63
2023-01-05T12:49:03.512Z,101482.03
2023-01-05T12:51:34.372Z,101473.63
2023-01-05T12:54:10.579Z,101478.53
2023-01-05T12:56:45.125Z,101469.97
2023-01-05T12:59:30.636Z,101468.47
2023-01-05T13:02:20.689Z,101465.13
2023-01-05T13:04:57.987Z,101460.09
2023-01-05T13:07:29.261Z,101462.97
2023-01-05T13:10:03.258Z,101457.50
2023-01-05T13:12:34.242Z,101454.19
2023-01-05T13:15:18.455Z,101447.47
2023-01-05T13:17:49.808Z,101444.25
2023-01-05T13:20:26.072Z,101444.19
2023-01-05T13:23:01.335Z,101446.47
2023-01-05T13:25:35.864Z,101442.56
2023-01-05T13:30:43.035Z,101448.72
2023-01-05T13:33:16.586Z,101431.56
2023-01-05T13:36:19.432Z,101444.00
2023-01-05T13:38:55.896Z,101436.56
2023-01-05T13:41:35.350Z,101438.13
2023-01-05T13:44:30.737Z,101442.03
2023-01-05T13:47:27.094Z,101436.56
2023-01-05T13:50:32.312Z,101432.72
2023-01-05T13:53:18.326Z,101424.44
2023-01-05T13:55:57.035Z,101426.09
2023-01-05T13:58:43.466Z,101436.19
2023-01-05T14:01:19.166Z,101429.13
2023-01-05T14:03:51.464Z,101437.81
2023-01-05T14:06:23.454Z,101441.22
2023-01-05T14:08:53.729Z,101433.97
2023-01-05T14:11:23.785Z,101429.94
2023-01-05T14:14:05.756Z,101435.63
2023-01-05T14:16:37.478Z,101441.81
2023-01-05T14:19:26.804Z,101438.81
2023-01-05T14:21:56.431Z,101445.47
2023-01-05T14:27:09.201Z,101437.28
2023-01-05T14:29:59.515Z,101451.25
2023-01-05T14:32:29.960Z,101442.59
2023-01-05T14:35:05.751Z,101442.63
2023-01-05T14:37:38.547Z,101448.56
2023-01-05T14:40:20.486Z,101452.84
2023-01-05T14:42:49.518Z,101448.44
2023-01-05T14:45:26.484Z,101458.91
2023-01-05T14:47:59.982Z,101465.00
2023-01-05T14:50:36.574Z,101456.94
2023-01-05T14:53:06.357Z,101452.63
2023-01-05T14:56:00.607Z,101457.28
2023-01-05T14:58:33.565Z,101457.38
2023-01-05T15:01:05.282Z,101459.41
2023-01-05T15:03:33.546Z,101460.91
2023-01-05T15:06:10.207Z,101467.38
2023-01-05T15:08:49.588Z,101462.13
2023-01-05T15:11:28.522Z,101458.38
2023-01-05T15:14:31.112Z,101457.28
2023-01-05T15:17:10.668Z,101464.03
2023-01-05T15:19:56.981Z,101469.69
2023-01-05T15:22:46.146Z,101474.16
2023-01-05T15:25:58.850Z,101468.41
2023-01-05T15:31:40.972Z,101468.78
2023-01-05T15:34:38.590Z,101474.00
2023-01-05T15:37:33.808Z,101467.84
2023-01-05T15:40:04.362Z,101474.16
2023-01-05T15:42:31.869Z,101470.97
2023-01-05T15:44:59.510Z,101476.75
2023-01-05T15:47:29.510Z,101472.94
2023-01-05T15:49:59.864Z,101480.66
2023-01-05T15:52:36.686Z,101486.19
2023-01-05T15:55:15.776Z,101484.03
2023-01-05T15:58:00.537Z,101488.97
2023-01-05T16:00:33.746Z,101486.34
2023-01-05T16:03:02.539Z,101478.19
2023-01-05T16:05:35.733Z,101485.94
2023-01-05T16:08:11.588Z,101484.13
2023-01-05T16:10:59.721Z,101491.34
2023-01-05T16:13:39.413Z,101501.44
2023-01-05T16:16:50.668Z,101500.38
2023-01-05T16:19:32.834Z,101504.16
2023-01-05T16:22:07.112Z,101516.94
2023-01-05T16:25:06.946Z,101512.31
2023-01-05T16:27:39.826Z,101506.38
2023-01-05T16:30:40.617Z,101495.09
2023-01-05T16:33:15.072Z,101507.03
2023-01-05T16:35:43.843Z,101518.19
2023-01-05T16:38:16.637Z,101517.16
2023-01-05T16:40:47.055Z,101509.81
2023-01-05T16:43:42.566Z,101514.25
2023-01-05T16:46:20.770Z,101518.88
2023-01-05T16:48:52.856Z,101524.31
2023-01-05T16:51:36.186Z,101528.63
2023-01-05T16:54:14.470Z,101525.69
2023-01-05T16:56:58.123Z,101526.19
2023-01-05T16:59:47.788Z,101518.09
2023-01-05T17:02:45.232Z,101521.13
2023-01-05T17:05:20.607Z,101540.44
2023-01-05T17:07:53.823Z,101541.81
2023-01-05T17:10:24.461Z,101533.16
2023-01-05T17:13:07.937Z,101535.56
2023-01-05T17:15:36.239Z,101536.09
2023-01-05T17:20:51.992Z,101542.16
2023-01-05T17:23:25.396Z,101550.31
2023-01-05T17:25:54.052Z,101542.97
2023-01-05T17:28:24.779Z,101546.00
2023-01-05T17:30:52.878Z,101559.31
2023-01-05T17:33:20.518Z,101554.41
2023-01-05T17:38:21.062Z,101559.38
2023-01-05T17:40:48.862Z,101555.81
2023-01-05T17:43:16.515Z,101553.91
2023-01-05T17:45:44.595Z,101559.38
2023-01-05T17:50:44.869Z,101569.16
2023-01-05T17:53:12.480Z,101570.31
2023-01-05T17:55:41.246Z,101572.50
2023-01-05T17:58:11.231Z,101565.44
2023-01-05T18:03:21.599Z,101576.47
2023-01-05T18:05:53.981Z,101580.06
2023-01-05T18:08:22.038Z,101581.22
2023-01-05T18:10:49.430Z,101572.09
2023-01-05T18:13:19.699Z,101579.13
2023-01-05T18:15:52.735Z,101582.38
2023-01-05T18:18:21.394Z,101576.72
2023-01-05T18:20:52.516Z,101581.56
2023-01-05T18:23:20.620Z,101584.50
2023-01-05T18:25:50.779Z,101585.91
2023-01-05T18:28:18.324Z,101592.44
2023-01-05T18:30:45.991Z,101587.81
2023-01-05T18:33:13.500Z,101601.84
2023-01-05T18:35:43.801Z,101596.81
2023-01-05T18:38:11.779Z,101604.91
2023-01-05T18:40:39.229Z,101608.34
2023-01-05T18:43:06.970Z,101605.78
2023-01-05T18:45:41.510Z,101606.97
2023-01-05T18:48:09.712Z,101618.06
2023-01-05T18:50:43.046Z,101611.38
2023-01-05T18:53:10.700Z,101608.97
2023-01-05T18:55:41.954Z,101616.56
2023-01-05T18:58:10.346Z,101618.97
2023-01-05T19:00:42.509Z,101610.50
2023-01-05T19:03:10.679Z,101623.44
2023-01-05T19:05:40.905Z,101606.66
2023-01-05T19:08:09.283Z,101621.38
2023-01-05T19:10:37.567Z,101623.25
2023-01-05T19:13:05.591Z,101619.78
2023-01-05T19:15:34.863Z,101623.09
2023-01-05T19:18:02.757Z,101629.88
2023-01-05T19:20:31.746Z,101627.97
2023-01-05T19:23:00.486Z,101626.38
2023-01-05T19:25:28.372Z,101623.13
2023-01-05T19:27:56.007Z,101624.50
2023-01-05T19:30:24.896Z,101620.47
2023-01-05T19:32:52.562Z,101627.97
2023-01-05T19:35:20.164Z,101641.50
2023-01-05T19:37:47.555Z,101640.56
2023-01-05T19:40:15.016Z,101641.75
2023-01-05T19:42:42.482Z,101647.03
2023-01-05T19:45:10.216Z,101651.94
2023-01-05T19:47:40.740Z,101649.19
2023-01-05T19:50:09.928Z,101654.03
2023-01-05T19:52:38.243Z,101656.94
2023-01-05T19:55:06.682Z,101644.69
2023-01-05T19:57:34.079Z,101651.75
2023-01-05T20:00:01.437Z,101654.25
2023-01-05T20:02:42.032Z,101645.00
2023-01-05T20:05:09.842Z,101646.72
2023-01-05T20:07:39.359Z,101653.16
2023-01-05T20:10:07.856Z,101660.88
2023-01-05T20:12:35.249Z,101651.94
2023-01-05T20:15:02.571Z,101659.22
2023-01-05T20:17:32.066Z,101669.09
2023-01-05T20:19:59.472Z,101660.34
2023-01-05T20:22:26.988Z,101665.63
2023-01-05T20:24:54.388Z,101670.31
2023-01-05T20:27:21.949Z,101668.94
2023-01-05T20:29:49.302Z,101671.22
2023-01-05T20:32:19.958Z,101674.75
2023-01-05T20:34:52.551Z,101672.34
2023-01-05T20:37:20.681Z,101672.13
2023-01-05T20:39:48.015Z,101676.44
2023-01-05T20:42:15.689Z,101684.72
2023-01-05T20:44:46.343Z,101684.16
2023-01-05T20:47:15.313Z,101687.50
2023-01-05T20:49:45.242Z,101689.47
2023-01-05T20:52:14.826Z,101690.50
2023-01-05T20:54:42.468Z,101689.31
2023-01-05T20:57:09.917Z,101690.41
2023-01-05T20:59:41.494Z,101698.59
2023-01-05T21:02:22.586Z,101699.69
2023-01-05T21:04:52.921Z,101690.78
2023-01-05T21:07:20.547Z,101690.25
2023-01-05T21:09:49.957Z,101696.75
2023-01-05T21:12:17.942Z,101701.16
2023-01-05T21:14:45.357Z,101690.56
2023-01-05T21:17:12.753Z,101696.81
2023-01-05T21:19:40.107Z,101709.56
2023-01-05T21:22:07.820Z,101707.94
2023-01-05T21:24:35.900Z,101711.22
2023-01-05T21:27:03.356Z,101713.13
2023-01-05T21:29:30.757Z,101711.75
2023-01-05T21:31:58.103Z,101712.84
2023-01-05T21:34:25.581Z,101717.22
2023-01-05T21:36:53.384Z,101711.00
2023-01-05T21:39:23.154Z,101708.00
2023-01-05T21:42:10.810Z,101709.88
2023-01-05T21:44:39.635Z,101711.22
2023-01-05T21:47:07.632Z,101715.03
2023-01-05T21:49:36.096Z,101715.03
2023-01-05T21:52:22.887Z,101721.00
2023-01-05T21:55:08.890Z,101721.56
2023-01-05T21:57:36.324Z,101719.13
2023-01-05T22:00:04.862Z,101723.13
2023-01-05T22:02:32.751Z,101729.91
2023-01-05T22:05:00.165Z,101731.28
2023-01-05T22:07:27.713Z,101736.47
2023-01-05T22:09:55.017Z,101734.78
2023-01-05T22:12:22.356Z,101740.47
2023-01-05T22:14:50.173Z,101743.19
2023-01-05T22:17:17.567Z,101736.94
2023-01-05T22:19:44.893Z,101741.84
2023-01-05T22:22:12.341Z,101742.09
2023-01-05T22:24:39.817Z,101744.75
2023-01-05T22:27:07.219Z,101737.59
2023-01-05T22:29:34.517Z,101740.81
2023-01-05T22:32:03.039Z,101741.97
2023-01-05T22:34:31.062Z,101738.22
2023-01-05T22:36:58.952Z,101738.19
2023-01-05T22:39:26.280Z,101743.72
2023-01-05T22:41:53.645Z,101743.19
2023-01-05T22:44:21.215Z,101747.00
2023-01-05T22:46:48.620Z,101742.69
2023-01-05T22:49:16.603Z,101736.22
2023-01-05T22:51:44.871Z,101747.63
2023-01-05T22:54:12.642Z,101748.97
2023-01-05T22:56:40.234Z,101750.09
2023-01-05T22:59:08.213Z,101742.47
2023-01-05T23:01:38.525Z,101743.28
2023-01-05T23:04:07.265Z,101750.66
2023-01-05T23:06:35.226Z,101744.69
2023-01-05T23:09:05.223Z,101744.66
2023-01-05T23:11:35.431Z,101737.06
2023-01-05T23:14:05.485Z,101737.38
2023-01-05T23:16:34.132Z,101739.31
2023-01-05T23:19:02.933Z,101738.28
2023-01-05T23:21:30.599Z,101743.66
2023-01-05T23:23:58.577Z,101742.78
2023-01-05T23:26:27.533Z,101741.16
2023-01-05T23:28:55.388Z,101735.28
2023-01-05T23:31:23.448Z,101742.53
2023-01-05T23:33:51.466Z,101742.28
2023-01-05T23:36:20.051Z,101737.44
2023-01-05T23:38:47.840Z,101740.97
2023-01-05T23:41:16.904Z,101742.81
2023-01-05T23:43:46.028Z,101741.69
2023-01-05T23:46:20.094Z,101750.38
2023-01-05T23:48:49.263Z,101749.09
2023-01-05T23:51:18.254Z,101756.09
2023-01-05T23:53:48.096Z,101755.03
2023-01-05T23:56:18.753Z,101747.47
2023-01-05T23:58:46.597Z,101749.09
